createdAt,value
2019-05-07T00:00:48.000Z,26.8
2019-05-07T00:02:48.000Z,26.6
2019-05-07T00:03:48.000Z,26.6
2019-05-07T00:04:48.000Z,26.7
2019-05-07T00:06:48.000Z,26.7
2019-05-07T00:07:48.000Z,26.8
2019-05-07T00:09:48.000Z,26.8
2019-05-07T00:10:48.000Z,26.9
2019-05-07T00:12:48.000Z,26.9
2019-05-07T00:13:48.000Z,27
2019-05-07T00:15:48.000Z,27
2019-05-07T00:16:48.000Z,26.9
2019-05-07T00:18:48.000Z,26.9
2019-05-07T00:19:48.000Z,26.9
2019-05-07T00:21:48.000Z,26.9
2019-05-07T00:23:32.000Z,26.9
2019-05-07T00:24:48.000Z,26.8
2019-05-07T00:25:48.000Z,26.8
2019-05-07T00:27:32.000Z,26.9
2019-05-07T00:28:48.000Z,26.9
2019-05-07T00:30:48.000Z,26.8
2019-05-07T00:31:48.000Z,26.8
2019-05-07T00:33:48.000Z,26.9
2019-05-07T00:34:48.000Z,26.9
2019-05-07T00:35:48.000Z,26.9
2019-05-07T00:37:48.000Z,27
2019-05-07T00:39:48.000Z,27
2019-05-07T00:41:32.000Z,27
2019-05-07T00:42:48.000Z,26.9
2019-05-07T00:44:48.000Z,26.9
2019-05-07T00:46:48.000Z,26.8
2019-05-07T00:48:48.000Z,26.7
2019-05-07T00:50:48.000Z,26.7
2019-05-07T00:51:48.000Z,26.7
2019-05-07T00:53:48.000Z,26.7
2019-05-07T00:54:48.000Z,26.8
2019-05-07T00:55:48.000Z,26.8
2019-05-07T00:57:48.000Z,26.9
2019-05-07T00:58:48.000Z,26.9
2019-05-07T01:00:48.000Z,26.9
2019-05-07T01:01:48.000Z,27
2019-05-07T01:03:48.000Z,26.9
2019-05-07T01:05:48.000Z,26.9
2019-05-07T01:07:48.000Z,26.8
2019-05-07T01:08:48.000Z,26.7
2019-05-07T01:09:48.000Z,26.8
2019-05-07T01:11:33.000Z,26.8
2019-05-07T01:12:48.000Z,26.8
2019-05-07T01:14:48.000Z,26.8
2019-05-07T01:16:33.000Z,26.7
2019-05-07T01:17:48.000Z,26.7
2019-05-07T01:18:48.000Z,26.7
2019-05-07T01:20:48.000Z,26.7
2019-05-07T01:21:48.000Z,26.8
2019-05-07T01:23:48.000Z,26.8
2019-05-07T01:25:48.000Z,26.8
2019-05-07T01:27:48.000Z,26.8
2019-05-07T01:29:48.000Z,26.8
2019-05-07T01:30:48.000Z,26.7
2019-05-07T01:32:48.000Z,26.8
2019-05-07T01:33:48.000Z,26.8
2019-05-07T01:34:48.000Z,26.8
2019-05-07T01:36:48.000Z,26.9
2019-05-07T01:38:48.000Z,26.8
2019-05-07T01:39:48.000Z,26.9
2019-05-07T01:41:48.000Z,26.9
2019-05-07T01:43:48.000Z,26.8
2019-05-07T01:44:48.000Z,26.8
2019-05-07T01:46:48.000Z,26.8
2019-05-07T01:47:48.000Z,26.8
2019-05-07T01:49:48.000Z,26.8
2019-05-07T01:51:48.000Z,26.8
2019-05-07T01:52:48.000Z,26.8
2019-05-07T01:54:48.000Z,26.8
2019-05-07T01:55:48.000Z,26.9
2019-05-07T01:57:33.000Z,26.9
2019-05-07T01:58:48.000Z,26.9
2019-05-07T02:00:48.000Z,26.8
2019-05-07T02:02:48.000Z,26.7
2019-05-07T02:03:48.000Z,26.7
2019-05-07T02:05:48.000Z,26.7
2019-05-07T02:07:48.000Z,26.7
2019-05-07T02:09:33.000Z,26.7
2019-05-07T02:10:48.000Z,26.6
2019-05-07T02:11:48.000Z,26.6
2019-05-07T02:13:48.000Z,26.6
2019-05-07T02:15:48.000Z,26.6
2019-05-07T02:17:33.000Z,26.5
2019-05-07T02:18:48.000Z,26.4
2019-05-07T02:19:48.000Z,26.4
2019-05-07T02:21:48.000Z,26.5
2019-05-07T02:22:48.000Z,26.6
2019-05-07T02:23:48.000Z,26.6
2019-05-07T02:25:48.000Z,26.6
2019-05-07T02:26:48.000Z,26.6
2019-05-07T02:28:48.000Z,26.7
2019-05-07T02:29:48.000Z,26.7
2019-05-07T02:31:33.000Z,26.7
2019-05-07T02:32:33.000Z,26.6
2019-05-07T02:33:33.000Z,26.5
2019-05-07T02:34:34.000Z,26.4
2019-05-07T02:35:48.000Z,26.4
2019-05-07T02:37:47.000Z,26.3
2019-05-07T02:39:48.000Z,26.1
2019-05-07T02:41:48.000Z,26
2019-05-07T02:42:48.000Z,26
2019-05-07T02:44:48.000Z,26.1
2019-05-07T02:45:48.000Z,26.1
2019-05-07T02:47:33.000Z,26.1
2019-05-07T02:48:48.000Z,26
2019-05-07T02:49:48.000Z,26.1
2019-05-07T02:51:48.000Z,26.2
2019-05-07T02:53:48.000Z,26.3
2019-05-07T02:55:33.000Z,26.4
2019-05-07T02:56:48.000Z,26.4
2019-05-07T02:58:48.000Z,26.4
2019-05-07T03:00:48.000Z,26.3
2019-05-07T03:02:48.000Z,26.1
2019-05-07T03:04:48.000Z,26
2019-05-07T03:06:33.000Z,25.8
2019-05-07T03:07:48.000Z,25.8
2019-05-07T03:09:48.000Z,25.9
2019-05-07T03:11:33.000Z,26
2019-05-07T03:12:48.000Z,25.9
2019-05-07T03:14:48.000Z,26
2019-05-07T03:16:33.000Z,25.9
2019-05-07T03:59:50.000Z,24.3
2019-05-07T04:00:53.000Z,24.3
2019-05-07T04:02:52.000Z,24.4
2019-05-07T04:04:53.000Z,24.5
2019-05-07T04:06:53.000Z,24.7
2019-05-07T04:08:05.000Z,24.9
2019-05-07T04:09:50.000Z,25.1
2019-05-07T04:10:53.000Z,25.1
2019-05-07T04:12:50.000Z,25.1
2019-05-07T04:13:53.000Z,25
2019-05-07T04:15:52.000Z,25
2019-05-07T04:17:50.000Z,25.1
2019-05-07T04:18:50.000Z,25.1
2019-05-07T04:19:53.000Z,25.1
2019-05-07T04:21:52.000Z,25.2
2019-05-07T04:24:04.000Z,25.3
2019-05-07T04:25:49.000Z,25.3
2019-05-07T04:27:52.000Z,25.2
2019-05-07T04:29:52.000Z,25.2
2019-05-07T04:31:52.000Z,25.2
2019-05-07T04:33:52.000Z,25.3
2019-05-07T04:35:53.000Z,25.3
2019-05-07T04:37:52.000Z,25.4
2019-05-07T04:39:52.000Z,25.5
2019-05-07T04:41:04.000Z,25.4
2019-05-07T04:42:53.000Z,25.5
2019-05-07T04:44:04.000Z,25.5
2019-05-07T04:45:49.000Z,25.6
2019-05-07T04:46:52.000Z,25.6
2019-05-07T04:48:52.000Z,25.5
2019-05-07T04:51:04.000Z,25.6
2019-05-07T04:53:04.000Z,25.7
2019-05-07T04:54:04.000Z,25.7
2019-05-07T04:55:52.000Z,25.8
2019-05-07T04:57:52.000Z,25.8
2019-05-07T04:59:49.000Z,25.8
2019-05-07T05:43:33.000Z,25.4
2019-05-07T05:45:18.000Z,25.7
2019-05-07T05:46:33.000Z,25.8
2019-05-07T05:48:33.000Z,26.1
2019-05-07T05:50:33.000Z,26.4
2019-05-07T05:52:33.000Z,26.7
2019-05-07T05:53:33.000Z,26.8
2019-05-07T05:55:33.000Z,27
2019-05-07T05:57:33.000Z,27.1
2019-05-07T05:58:33.000Z,27.2
2019-05-07T06:00:33.000Z,27.4
2019-05-07T06:01:33.000Z,27.5
2019-05-07T06:03:17.000Z,27.6
2019-05-07T06:04:33.000Z,27.7
2019-05-07T06:06:33.000Z,27.7
2019-05-07T06:08:33.000Z,27.8
2019-05-07T06:10:33.000Z,27.7
2019-05-07T06:12:33.000Z,27.7
2019-05-07T06:14:33.000Z,27.7
2019-05-07T06:16:33.000Z,27.8
2019-05-07T06:18:18.000Z,27.7
2019-05-07T06:19:33.000Z,27.7
2019-05-07T06:21:33.000Z,27.6
2019-05-07T06:22:33.000Z,27.7
2019-05-07T06:24:33.000Z,27.8
2019-05-07T06:26:33.000Z,28
2019-05-07T06:28:17.000Z,27.9
2019-05-07T06:30:32.000Z,28.2
2019-05-07T06:31:32.000Z,28.2
2019-05-07T06:33:32.000Z,28.3
2019-05-07T06:34:32.000Z,28.4
2019-05-07T06:36:32.000Z,28.4
2019-05-07T06:37:32.000Z,28.5
2019-05-07T06:38:32.000Z,28.6
2019-05-07T06:40:17.000Z,28.7
2019-05-07T06:41:32.000Z,28.6
2019-05-07T06:42:32.000Z,28.6
2019-05-07T06:43:32.000Z,28.7
2019-05-07T06:44:32.000Z,28.9
2019-05-07T06:45:32.000Z,29
2019-05-07T06:47:17.000Z,29
2019-05-07T06:48:17.000Z,28.6
2019-05-07T06:49:32.000Z,28.9
2019-05-07T06:50:32.000Z,28.9
2019-05-07T06:52:32.000Z,28.8
2019-05-07T06:53:32.000Z,28.8
2019-05-07T06:55:32.000Z,28.8
2019-05-07T06:57:32.000Z,28.9
2019-05-07T06:59:32.000Z,29
2019-05-07T07:01:32.000Z,28.9
2019-05-07T07:02:32.000Z,28.9
2019-05-07T07:04:17.000Z,29
2019-05-07T07:05:32.000Z,29
2019-05-07T07:06:32.000Z,29.1
2019-05-07T07:08:32.000Z,29.2
2019-05-07T07:09:32.000Z,29.2
2019-05-07T07:11:32.000Z,29.4
2019-05-07T07:13:32.000Z,29.3
2019-05-07T07:14:32.000Z,29.3
2019-05-07T07:16:17.000Z,29.4
2019-05-07T07:17:32.000Z,29.5
2019-05-07T07:19:32.000Z,29.5
2019-05-07T07:21:32.000Z,29.4
2019-05-07T07:23:32.000Z,29.4
2019-05-07T07:24:32.000Z,29.4
2019-05-07T07:26:32.000Z,29.3
2019-05-07T07:27:32.000Z,29.2
2019-05-07T07:28:32.000Z,29.2
2019-05-07T07:30:32.000Z,29.1
2019-05-07T07:32:32.000Z,29.1
2019-05-07T07:34:17.000Z,29
2019-05-07T07:35:32.000Z,28.9
2019-05-07T07:36:32.000Z,28.9
2019-05-07T07:38:32.000Z,28.8
2019-05-07T07:40:32.000Z,28.7
2019-05-07T07:41:32.000Z,28.7
2019-05-07T07:42:32.000Z,28.7
2019-05-07T07:43:32.000Z,28.8
2019-05-07T07:44:41.000Z,28.8
2019-05-07T07:54:21.000Z,27.2
2019-05-07T07:55:21.000Z,27.1
2019-05-07T07:57:36.000Z,27.1
2019-05-07T07:59:20.000Z,27.2
2019-05-07T08:00:21.000Z,27.3
2019-05-07T08:01:21.000Z,27.2
2019-05-07T08:03:21.000Z,27.3
2019-05-07T08:05:21.000Z,27.3
2019-05-07T08:07:22.000Z,27.3
2019-05-07T08:09:20.000Z,27.4
2019-05-07T08:10:21.000Z,27.4
2019-05-07T08:11:21.000Z,27.3
2019-05-07T08:13:22.000Z,27.3
2019-05-07T08:15:21.000Z,27.3
2019-05-07T08:16:21.000Z,27.2
2019-05-07T08:18:21.000Z,27.2
2019-05-07T08:20:21.000Z,27.2
2019-05-07T08:22:21.000Z,27.2
2019-05-07T09:05:54.000Z,26.5
2019-05-07T09:07:09.000Z,26.6
2019-05-07T09:09:09.000Z,26.8
2019-05-07T09:11:09.000Z,27
2019-05-07T09:13:09.000Z,27.3
2019-05-07T09:15:09.000Z,27.5
2019-05-07T09:17:09.000Z,27.5
2019-05-07T09:19:09.000Z,27.6
2019-05-07T09:20:54.000Z,27.6
2019-05-07T09:22:09.000Z,27.7
2019-05-07T09:24:09.000Z,27.7
2019-05-07T09:25:54.000Z,27.8
2019-05-07T09:27:09.000Z,27.8
2019-05-07T09:29:09.000Z,27.8
2019-05-07T09:31:09.000Z,27.9
2019-05-07T09:33:09.000Z,27.9
2019-05-07T09:34:09.000Z,27.9
2019-05-07T09:36:09.000Z,27.9
2019-05-07T09:37:09.000Z,28
2019-05-07T09:38:09.000Z,28
2019-05-07T09:40:09.000Z,28
2019-05-07T09:42:09.000Z,27.9
2019-05-07T09:43:09.000Z,27.9
2019-05-07T09:44:09.000Z,27.9
2019-05-07T09:46:09.000Z,28
2019-05-07T09:48:09.000Z,28
2019-05-07T09:49:54.000Z,28
2019-05-07T09:51:09.000Z,28
2019-05-07T09:53:09.000Z,28
2019-05-07T09:55:09.000Z,28
2019-05-07T09:57:09.000Z,28
2019-05-07T09:59:09.000Z,28.1
2019-05-07T10:01:09.000Z,28.2
2019-05-07T10:02:56.000Z,28.2
2019-05-07T10:04:09.000Z,28.2
2019-05-07T10:06:09.000Z,28.3
2019-05-07T10:07:54.000Z,28.4
2019-05-07T10:09:09.000Z,28.4
2019-05-07T10:10:09.000Z,28.4
2019-05-07T10:11:09.000Z,28.4
2019-05-07T10:12:09.000Z,28.4
2019-05-07T10:13:09.000Z,28.4
2019-05-07T10:15:10.000Z,28.5
2019-05-07T10:17:09.000Z,28.5
2019-05-07T10:19:09.000Z,28.5
2019-05-07T10:20:09.000Z,28.6
2019-05-07T10:22:09.000Z,28.7
2019-05-07T10:23:09.000Z,28.7
2019-05-07T10:25:09.000Z,28.7
2019-05-07T10:27:09.000Z,28.7
2019-05-07T10:29:09.000Z,28.7
2019-05-07T10:31:09.000Z,28.7
2019-05-07T10:32:09.000Z,28.7
2019-05-07T10:33:54.000Z,28.8
2019-05-07T10:35:09.000Z,28.8
2019-05-07T10:37:09.000Z,28.9
2019-05-07T10:38:54.000Z,28.8
2019-05-07T10:40:09.000Z,28.8
2019-05-07T10:41:55.000Z,28.8
2019-05-07T10:43:09.000Z,28.8
2019-05-07T10:44:10.000Z,28.8
2019-05-07T10:46:10.000Z,28.9
2019-05-07T10:48:10.000Z,28.9
2019-05-07T10:50:10.000Z,28.8
2019-05-07T10:52:10.000Z,28.4
2019-05-07T10:54:10.000Z,27.8
2019-05-07T10:55:55.000Z,27.4
2019-05-07T10:57:10.000Z,27.2
2019-05-07T10:58:10.000Z,27
2019-05-07T10:59:10.000Z,27
2019-05-07T11:01:10.000Z,26.9
2019-05-07T11:03:10.000Z,26.7
2019-05-07T11:05:10.000Z,26.6
2019-05-07T11:07:10.000Z,26.4
2019-05-07T11:08:10.000Z,26.3
2019-05-07T11:09:10.000Z,26.3
2019-05-07T11:10:55.000Z,26.3
2019-05-07T11:12:10.000Z,26.2
2019-05-07T11:13:55.000Z,25.9
2019-05-07T11:15:10.000Z,25.6
2019-05-07T11:17:10.000Z,25.4
2019-05-07T11:19:10.000Z,25.3
2019-05-07T11:20:55.000Z,25.3
2019-05-07T11:22:10.000Z,25.2
2019-05-07T11:24:10.000Z,25
2019-05-07T11:25:10.000Z,24.9
2019-05-07T11:27:10.000Z,24.9
2019-05-07T11:29:10.000Z,24.8
2019-05-07T11:31:10.000Z,24.8
2019-05-07T11:33:10.000Z,24.8
2019-05-07T11:34:55.000Z,24.8
2019-05-07T11:36:10.000Z,24.8
2019-05-07T11:38:10.000Z,24.8
2019-05-07T11:40:10.000Z,24.8
2019-05-07T12:24:10.000Z,24.2
2019-05-07T12:25:11.000Z,24.2
2019-05-07T12:27:10.000Z,24.3
2019-05-07T12:28:10.000Z,24.3
2019-05-07T12:30:10.000Z,24.3
2019-05-07T12:32:25.000Z,24.3
2019-05-07T12:34:10.000Z,24.3
2019-05-07T12:36:10.000Z,24.4
2019-05-07T12:37:11.000Z,24.3
2019-05-07T12:39:12.000Z,24.3
2019-05-07T12:41:12.000Z,24.2
2019-05-07T12:43:25.000Z,24
2019-05-07T12:45:10.000Z,23.9
2019-05-07T12:46:11.000Z,23.8
2019-05-07T12:48:10.000Z,23.7
2019-05-07T12:49:10.000Z,23.6
2019-05-07T12:51:10.000Z,23.5
2019-05-07T12:52:12.000Z,23.5
2019-05-07T12:54:11.000Z,23.5
2019-05-07T12:55:11.000Z,23.5
2019-05-07T12:56:26.000Z,23.5
2019-05-07T12:58:11.000Z,23.5
2019-05-07T13:41:57.000Z,25.5
2019-05-07T13:43:57.000Z,25.8
2019-05-07T13:44:57.000Z,26
2019-05-07T13:46:42.000Z,26.3
2019-05-07T14:30:17.000Z,25.8
2019-05-07T14:31:17.000Z,26
2019-05-07T14:33:02.000Z,26.2
2019-05-07T14:34:17.000Z,26.3
2019-05-07T14:36:17.000Z,26.5
2019-05-07T14:38:17.000Z,26.7
2019-05-07T14:39:17.000Z,26.8
2019-05-07T14:41:17.000Z,27
2019-05-07T14:42:17.000Z,27.2
2019-05-07T14:44:17.000Z,27.3
2019-05-07T14:45:17.000Z,27.4
2019-05-07T14:47:17.000Z,27.4
2019-05-07T14:49:02.000Z,27.5
2019-05-07T14:50:17.000Z,27.5
2019-05-07T14:52:17.000Z,27.5
2019-05-07T14:54:17.000Z,27.5
2019-05-07T14:56:18.000Z,27.4
2019-05-07T14:58:18.000Z,27.3
2019-05-07T14:59:18.000Z,27.3
2019-05-07T15:01:18.000Z,27.4
2019-05-07T15:02:18.000Z,27.4
2019-05-07T15:03:18.000Z,27.5
2019-05-07T15:04:18.000Z,27.5
2019-05-07T15:06:18.000Z,27.5
2019-05-07T15:08:03.000Z,27.5
2019-05-07T15:09:18.000Z,27.4
2019-05-07T15:10:18.000Z,27.5
2019-05-07T15:12:03.000Z,27.6
2019-05-07T15:13:18.000Z,27.5
2019-05-07T15:14:18.000Z,27.5
2019-05-07T15:16:18.000Z,27.6
2019-05-07T15:18:18.000Z,27.6
2019-05-07T15:20:18.000Z,27.7
2019-05-07T15:21:18.000Z,27.7
2019-05-07T15:23:18.000Z,27.8
2019-05-07T15:25:18.000Z,27.7
2019-05-07T15:27:18.000Z,27.7
2019-05-07T15:28:18.000Z,27.7
2019-05-07T15:30:18.000Z,27.6
2019-05-07T15:32:03.000Z,27.7
2019-05-07T15:33:18.000Z,27.7
2019-05-07T15:35:18.000Z,27.7
2019-05-07T15:37:03.000Z,27.7
2019-05-07T15:38:18.000Z,27.6
2019-05-07T15:40:18.000Z,27.6
2019-05-07T15:42:18.000Z,27.6
2019-05-07T15:44:18.000Z,27.6
2019-05-07T15:45:18.000Z,27.6
2019-05-07T15:46:18.000Z,27.6
2019-05-07T15:48:18.000Z,27.8
2019-05-07T15:49:18.000Z,27.8
2019-05-07T15:50:18.000Z,27.9
2019-05-07T15:52:03.000Z,28
2019-05-07T15:53:18.000Z,27.9
2019-05-07T15:55:18.000Z,27.9
2019-05-07T15:56:18.000Z,27.8
2019-05-07T15:58:18.000Z,27.9
2019-05-07T15:59:18.000Z,27.8
2019-05-07T16:00:18.000Z,27.8
2019-05-07T16:02:18.000Z,27.7
2019-05-07T16:04:18.000Z,27.7
2019-05-07T16:06:03.000Z,27.5
2019-05-07T16:07:05.000Z,27.3
2019-05-07T16:09:03.000Z,27.1
2019-05-07T16:10:18.000Z,26.9
2019-05-07T16:12:18.000Z,26.9
2019-05-07T16:13:18.000Z,26.9
2019-05-07T16:14:18.000Z,27
2019-05-07T16:15:18.000Z,27.2
2019-05-07T16:17:18.000Z,27.4
2019-05-07T16:18:18.000Z,27.5
2019-05-07T16:20:03.000Z,27.7
2019-05-07T16:22:03.000Z,27.7
2019-05-07T16:24:04.000Z,27.6
2019-05-07T16:26:03.000Z,27.5
2019-05-07T16:27:05.000Z,27.4
2019-05-07T16:29:03.000Z,27.3
2019-05-07T16:31:18.000Z,27
2019-05-07T16:32:18.000Z,27.1
2019-05-07T16:34:18.000Z,27.3
2019-05-07T16:36:02.000Z,27.4
2019-05-07T16:37:03.000Z,27.4
2019-05-07T16:38:18.000Z,27.4
2019-05-07T16:40:04.000Z,27.4
2019-05-07T16:41:18.000Z,27.5
2019-05-07T16:43:18.000Z,27.6
2019-05-07T16:45:18.000Z,27.7
2019-05-07T16:47:18.000Z,27.7
2019-05-07T16:49:18.000Z,27.8
2019-05-07T16:51:18.000Z,27.8
2019-05-07T16:52:18.000Z,27.8
2019-05-07T16:54:03.000Z,27.8
2019-05-07T16:55:18.000Z,27.8
2019-05-07T16:57:18.000Z,27.9
2019-05-07T16:59:18.000Z,27.8
2019-05-07T17:00:18.000Z,27.8
2019-05-07T17:01:18.000Z,27.9
2019-05-07T17:02:18.000Z,28
2019-05-07T17:04:02.000Z,28.1
2019-05-07T17:05:17.000Z,28.1
2019-05-07T17:06:17.000Z,28.1
2019-05-07T17:07:17.000Z,28.2
2019-05-07T17:09:17.000Z,28.2
2019-05-07T17:11:17.000Z,28.2
2019-05-07T17:13:17.000Z,28.1
2019-05-07T17:15:17.000Z,28
2019-05-07T17:17:17.000Z,28
2019-05-07T17:18:17.000Z,28
2019-05-07T17:19:17.000Z,28.1
2019-05-07T17:21:17.000Z,28.2
2019-05-07T17:23:17.000Z,28.1
2019-05-07T17:24:17.000Z,28.1
2019-05-07T17:25:17.000Z,28.1
2019-05-07T17:27:17.000Z,28
2019-05-07T17:29:17.000Z,28
2019-05-07T17:31:17.000Z,27.9
2019-05-07T17:32:17.000Z,28
2019-05-07T17:34:17.000Z,28
2019-05-07T17:36:17.000Z,28.1
2019-05-07T17:38:02.000Z,28.1
2019-05-07T17:40:17.000Z,27.8
2019-05-07T17:42:02.000Z,27.7
2019-05-07T17:43:02.000Z,27.6
2019-05-07T17:44:17.000Z,27.6
2019-05-07T17:45:17.000Z,27.7
2019-05-07T17:46:17.000Z,27.8
2019-05-07T17:48:02.000Z,27.9
2019-05-07T17:49:17.000Z,27.9
2019-05-07T17:51:17.000Z,27.9
2019-05-07T17:52:17.000Z,27.8
2019-05-07T17:54:17.000Z,27.9
2019-05-07T17:56:17.000Z,27.9
2019-05-07T17:58:17.000Z,27.9
2019-05-07T18:00:17.000Z,27.8
2019-05-07T18:01:17.000Z,27.8
2019-05-07T18:03:17.000Z,27.9
2019-05-07T18:05:17.000Z,27.9
2019-05-07T18:06:17.000Z,27.9
2019-05-07T18:07:17.000Z,27.9
2019-05-07T18:08:17.000Z,28
2019-05-07T18:10:17.000Z,28
2019-05-07T18:12:17.000Z,27.9
2019-05-07T18:14:17.000Z,27.8
2019-05-07T18:15:17.000Z,27.8
2019-05-07T18:16:17.000Z,27.8
2019-05-07T18:18:17.000Z,27.9
2019-05-07T18:19:17.000Z,27.9
2019-05-07T18:20:17.000Z,28
2019-05-07T18:22:17.000Z,28
2019-05-07T18:23:17.000Z,28
2019-05-07T18:25:17.000Z,27.9
2019-05-07T18:26:17.000Z,27.9
2019-05-07T18:28:17.000Z,27.8
2019-05-07T18:30:17.000Z,27.8
2019-05-07T18:31:17.000Z,27.8
2019-05-07T18:33:17.000Z,27.8
2019-05-07T18:35:17.000Z,27.8
2019-05-07T18:36:17.000Z,27.8
2019-05-07T18:37:17.000Z,27.8
2019-05-07T18:39:17.000Z,27.8
2019-05-07T18:41:17.000Z,27.6
2019-05-07T18:42:17.000Z,27.5
2019-05-07T18:43:17.000Z,27.6
2019-05-07T18:45:17.000Z,27.5
2019-05-07T18:46:17.000Z,27.5
2019-05-07T18:48:17.000Z,27.6
2019-05-07T18:50:17.000Z,27.6
2019-05-07T18:51:17.000Z,27.6
2019-05-07T18:52:17.000Z,27.6
2019-05-07T18:54:17.000Z,27.7
2019-05-07T18:56:17.000Z,27.6
2019-05-07T18:58:02.000Z,27.5
2019-05-07T18:59:17.000Z,27.5
2019-05-07T19:01:17.000Z,27.5
2019-05-07T19:02:17.000Z,27.5
2019-05-07T19:04:17.000Z,27.5
2019-05-07T19:05:17.000Z,27.5
2019-05-07T19:07:17.000Z,27.5
2019-05-07T19:09:17.000Z,27.4
2019-05-07T19:10:17.000Z,27.4
2019-05-07T19:12:18.000Z,27.5
2019-05-07T19:13:18.000Z,27.4
2019-05-07T19:14:18.000Z,27.5
2019-05-07T19:15:18.000Z,27.5
2019-05-07T19:17:18.000Z,27.6
2019-05-07T19:19:18.000Z,27.6
2019-05-07T19:21:06.000Z,27.6
2019-05-07T19:22:18.000Z,27.5
2019-05-07T19:23:18.000Z,27.5
2019-05-07T19:24:18.000Z,27.5
2019-05-07T19:26:18.000Z,27.5
2019-05-07T19:27:18.000Z,27.6
2019-05-07T19:29:18.000Z,27.6
2019-05-07T19:30:18.000Z,27.6
2019-05-07T19:32:18.000Z,27.7
2019-05-07T19:33:18.000Z,27.7
2019-05-07T19:34:18.000Z,27.7
2019-05-07T19:36:03.000Z,27.8
2019-05-07T19:37:18.000Z,27.7
2019-05-07T19:39:18.000Z,27.7
2019-05-07T19:41:18.000Z,27.7
2019-05-07T19:42:18.000Z,27.7
2019-05-07T19:44:18.000Z,27.7
2019-05-07T19:46:18.000Z,27.6
2019-05-07T19:48:18.000Z,27.6
2019-05-07T19:50:18.000Z,27.6
2019-05-07T19:51:18.000Z,27.6
2019-05-07T19:53:18.000Z,27.6
2019-05-07T19:55:04.000Z,27.5
2019-05-07T19:56:18.000Z,27.3
2019-05-07T19:57:18.000Z,27.3
2019-05-07T19:59:18.000Z,27.2
2019-05-07T20:01:18.000Z,27.3
2019-05-07T20:03:03.000Z,27.3
2019-05-07T20:04:18.000Z,27.3
2019-05-07T20:06:18.000Z,27.3
2019-05-07T20:08:03.000Z,27.3
2019-05-07T20:09:12.000Z,27.1
2019-05-07T20:10:18.000Z,27
2019-05-07T20:11:18.000Z,27
2019-05-07T20:12:18.000Z,27
2019-05-07T20:14:18.000Z,27.2
2019-05-07T20:16:17.000Z,27.2
2019-05-07T20:18:02.000Z,27.3
2019-05-07T20:19:17.000Z,27.3
2019-05-07T20:20:17.000Z,27.3
2019-05-07T20:22:17.000Z,27.4
2019-05-07T20:23:17.000Z,27.5
2019-05-07T20:25:02.000Z,27.5
2019-05-07T21:08:42.000Z,25.1
2019-05-07T21:10:42.000Z,25.4
2019-05-07T21:12:42.000Z,25.6
2019-05-07T21:14:41.000Z,25.9
2019-05-07T21:15:42.000Z,26
2019-05-07T21:16:42.000Z,26.2
2019-05-07T21:18:41.000Z,26.5
2019-05-07T21:19:41.000Z,26.7
2019-05-07T21:21:41.000Z,26.8
2019-05-07T21:22:41.000Z,26.9
2019-05-07T21:24:41.000Z,27
2019-05-07T21:26:41.000Z,27
2019-05-07T21:27:41.000Z,27
2019-05-07T21:29:41.000Z,27
2019-05-07T21:30:41.000Z,27
2019-05-07T21:32:41.000Z,26.9
2019-05-07T21:33:41.000Z,26.9
2019-05-07T21:35:41.000Z,26.9
2019-05-07T21:37:41.000Z,26.8
2019-05-07T21:38:41.000Z,26.8
2019-05-07T21:39:41.000Z,26.8
2019-05-07T21:41:41.000Z,26.9
2019-05-07T21:43:41.000Z,26.8
2019-05-07T21:45:41.000Z,26.7
2019-05-07T21:46:41.000Z,26.7
2019-05-07T21:47:41.000Z,26.8
2019-05-07T21:49:41.000Z,27
2019-05-07T21:51:41.000Z,26.9
2019-05-07T21:53:41.000Z,26.9
2019-05-07T21:55:41.000Z,26.8
2019-05-07T21:57:41.000Z,26.6
2019-05-07T21:58:41.000Z,26.6
2019-05-07T21:59:41.000Z,26.7
2019-05-07T22:01:41.000Z,26.7
2019-05-07T22:03:26.000Z,26.7
2019-05-07T22:04:41.000Z,26.6
2019-05-07T22:05:41.000Z,26.7
2019-05-07T22:07:41.000Z,26.6
2019-05-07T22:08:41.000Z,26.7
2019-05-07T22:10:41.000Z,26.8
2019-05-07T22:11:41.000Z,26.8
2019-05-07T22:13:26.000Z,26.8
2019-05-07T22:14:41.000Z,26.7
2019-05-07T22:15:41.000Z,26.8
2019-05-07T22:17:41.000Z,26.8
2019-05-07T22:19:41.000Z,26.6
2019-05-07T22:20:41.000Z,26.6
2019-05-07T22:21:41.000Z,26.6
2019-05-07T22:23:42.000Z,26.6
2019-05-07T22:25:42.000Z,26.6
2019-05-07T22:26:42.000Z,26.7
2019-05-07T22:28:42.000Z,26.7
2019-05-07T22:30:42.000Z,26.8
2019-05-07T22:32:42.000Z,26.8
2019-05-07T22:34:42.000Z,26.8
2019-05-07T22:36:42.000Z,26.8
2019-05-07T22:38:42.000Z,26.7
2019-05-07T22:39:42.000Z,26.7
2019-05-07T22:41:42.000Z,26.7
2019-05-07T22:43:42.000Z,26.8
2019-05-07T22:45:42.000Z,26.8
2019-05-07T22:47:42.000Z,26.8
2019-05-07T22:48:42.000Z,26.8
2019-05-07T22:50:42.000Z,26.9
2019-05-07T22:52:42.000Z,26.8
2019-05-07T22:54:27.000Z,26.8
2019-05-07T22:55:42.000Z,26.8
2019-05-07T22:57:42.000Z,26.8
2019-05-07T22:58:42.000Z,26.8
2019-05-07T22:59:42.000Z,26.9
2019-05-07T23:01:42.000Z,26.9
2019-05-07T23:03:42.000Z,26.9
2019-05-07T23:05:42.000Z,26.8
2019-05-07T23:07:42.000Z,26.6
2019-05-07T23:09:42.000Z,26.5
2019-05-07T23:11:42.000Z,26.4
2019-05-07T23:13:42.000Z,26.4
2019-05-07T23:14:42.000Z,26.4
2019-05-07T23:16:42.000Z,26.6
2019-05-07T23:18:42.000Z,26.5
2019-05-07T23:20:42.000Z,26.4
2019-05-07T23:21:42.000Z,26.4
2019-05-07T23:22:42.000Z,26.4
2019-05-07T23:24:42.000Z,26.4
2019-05-07T23:26:42.000Z,26.5
2019-05-07T23:28:42.000Z,26.5
2019-05-07T23:29:42.000Z,26.5
2019-05-07T23:31:42.000Z,26.5
2019-05-07T23:33:42.000Z,26.5
2019-05-07T23:35:42.000Z,26.6
2019-05-07T23:36:42.000Z,26.6
2019-05-07T23:38:42.000Z,26.8
2019-05-07T23:39:42.000Z,26.8
2019-05-07T23:40:42.000Z,26.8
2019-05-07T23:42:27.000Z,26.9
2019-05-07T23:43:42.000Z,27
2019-05-07T23:44:42.000Z,27
2019-05-07T23:46:42.000Z,27.1
2019-05-07T23:48:27.000Z,27
2019-05-07T23:49:42.000Z,26.9
2019-05-07T23:50:42.000Z,26.8
2019-05-07T23:51:42.000Z,26.8
2019-05-07T23:53:42.000Z,26.9
2019-05-07T23:55:42.000Z,26.8
2019-05-07T23:57:42.000Z,26.8
2019-05-07T23:59:42.000Z,26.6
